Time;durP1;ratioP1;P1;durP2;ratioP2;P2;SDS_P1;SDS_P2;PMS_P1;PMS_P2;Temp;Humidity;BMP_temperature;BMP_pressure;BME280_temperature;BME280_humidity;BME280_pressure;Samples;Min_cycle;Max_cycle;Signal;HPM_P1;HPM_P2
2022/07/28 00:01:24;;;;;;;17.20;9.28;;;;;;;20.02;100.00;99203.23;1709497;84;21066;-80
2022/07/28 00:03:52;;;;;;;14.70;8.80;;;;;;;20.00;100.00;99197.98;1709737;84;21019;-79
2022/07/28 00:06:20;;;;;;;17.55;8.85;;;;;;;20.00;100.00;99196.61;1709764;84;21030;-79
2022/07/28 00:08:47;;;;;;;13.50;8.55;;;;;;;20.00;100.00;99193.87;1709726;84;21004;-80
2022/07/28 00:11:14;;;;;;;16.87;8.93;;;;;;;20.01;100.00;99193.32;1709484;83;21043;-80
2022/07/28 00:13:42;;;;;;;15.05;9.13;;;;;;;20.00;100.00;99189.75;1709794;84;21031;-80
2022/07/28 00:16:09;;;;;;;16.52;9.25;;;;;;;20.00;100.00;99182.08;1709553;84;21070;-79
2022/07/28 00:18:36;;;;;;;15.38;8.93;;;;;;;19.97;100.00;99186.69;1709771;83;21000;-80
2022/07/28 00:21:03;;;;;;;14.80;9.15;;;;;;;19.95;100.00;99183.38;1709628;84;21083;-80
2022/07/28 00:23:32;;;;;;;16.25;8.20;;;;;;;19.94;100.00;99184.45;1709323;84;21358;-80
2022/07/28 00:25:59;;;;;;;15.23;8.40;;;;;;;19.90;100.00;99190.98;1709611;84;21107;-79
2022/07/28 00:28:26;;;;;;;12.95;8.58;;;;;;;19.88;100.00;99189.04;1709649;84;21019;-80
2022/07/28 00:30:54;;;;;;;16.05;8.38;;;;;;;19.86;100.00;99189.28;1709755;84;20987;-81
2022/07/28 00:33:21;;;;;;;15.68;8.40;;;;;;;19.85;100.00;99196.42;1709640;84;21054;-80
2022/07/28 00:35:47;;;;;;;12.37;7.65;;;;;;;19.83;100.00;99194.45;1709698;84;20956;-80
2022/07/28 00:38:15;;;;;;;11.22;6.95;;;;;;;19.81;100.00;99197.98;1709470;84;21039;-80
2022/07/28 00:43:29;;;;;;;12.93;7.42;;;;;;;19.78;100.00;99195.22;1708860;84;21509;-80
2022/07/28 00:45:56;;;;;;;12.20;7.05;;;;;;;19.78;100.00;99197.11;1708976;84;21039;-79
2022/07/28 00:48:23;;;;;;;9.58;6.85;;;;;;;19.77;100.00;99207.81;1709252;84;21047;-79
2022/07/28 00:50:50;;;;;;;12.23;6.60;;;;;;;19.75;100.00;99203.13;1708824;84;21007;-80
2022/07/28 00:53:18;;;;;;;13.68;6.85;;;;;;;19.73;100.00;99212.42;1709214;84;21039;-81
2022/07/28 00:55:44;;;;;;;12.45;6.45;;;;;;;19.73;100.00;99217.91;1709117;84;20984;-80
2022/07/28 00:58:11;;;;;;;10.68;6.95;;;;;;;19.74;100.00;99217.36;1709267;84;21015;-80
2022/07/28 01:00:39;;;;;;;10.65;6.05;;;;;;;19.74;100.00;99221.47;1709126;83;21035;-79
2022/07/28 01:03:06;;;;;;;11.88;6.20;;;;;;;19.75;100.00;99229.19;1708944;84;21513;-79
2022/07/28 01:05:41;;;;;;;10.23;6.35;;;;;;;19.75;100.00;99234.67;1709219;84;21076;-80
2022/07/28 01:08:24;;;;;;;17.92;8.75;;;;;;;19.74;100.00;99237.93;1635796;87;21078;-80
2022/07/28 01:11:08;;;;;;;17.52;8.28;;;;;;;19.73;100.00;99237.11;1583854;90;21132;-80
2022/07/28 01:13:52;;;;;;;15.38;7.92;;;;;;;19.79;100.00;99250.91;1534217;92;21094;-81
2022/07/28 01:16:18;;;;;;;16.52;8.48;;;;;;;19.82;100.00;99258.64;1533736;94;21078;-80
2022/07/28 01:19:01;;;;;;;15.05;7.67;;;;;;;19.83;100.00;99265.77;1510092;95;21136;-79
2022/07/28 01:21:32;;;;;;;13.28;7.30;;;;;;;19.84;100.00;99274.30;1482670;97;21108;-80
2022/07/28 01:24:32;;;;;;;11.00;6.55;;;;;;;19.82;100.00;99272.36;1456108;99;21586;-79
2022/07/28 01:27:04;;;;;;;11.12;6.72;;;;;;;19.84;100.00;99290.21;1456061;99;21058;-80
2022/07/28 01:29:45;;;;;;;13.08;6.45;;;;;;;19.85;100.00;99289.69;1418780;101;21111;-80
2022/07/28 01:32:21;;;;;;;10.88;6.53;;;;;;;19.85;100.00;99296.55;1417628;100;21211;-79
2022/07/28 01:35:15;;;;;;;11.03;6.12;;;;;;;19.85;100.00;99303.41;1418867;101;21163;-80
2022/07/28 01:37:46;;;;;;;13.28;7.45;;;;;;;19.83;100.00;99307.77;1418215;101;21205;-79
2022/07/28 01:40:16;;;;;;;20.82;10.78;;;;;;;19.80;100.00;99301.95;1414989;100;21119;-80
2022/07/28 01:42:47;;;;;;;26.45;13.90;;;;;;;19.74;100.00;99306.50;1391490;103;21227;-80
2022/07/28 01:45:14;;;;;;;21.62;12.07;;;;;;;19.70;100.00;99303.94;1423960;101;21115;-79
2022/07/28 01:47:44;;;;;;;22.42;12.00;;;;;;;19.66;100.00;99302.23;1417146;99;21192;-79
2022/07/28 01:50:14;;;;;;;22.80;11.95;;;;;;;19.64;100.00;99301.66;1475626;94;21116;-79
2022/07/28 01:52:42;;;;;;;21.65;10.60;;;;;;;19.63;100.00;99301.91;1512037;95;21146;-79
2022/07/28 01:55:11;;;;;;;22.48;11.30;;;;;;;19.61;100.00;99284.33;1511480;95;21105;-79
2022/07/28 01:57:39;;;;;;;23.95;11.73;;;;;;;19.59;100.00;99288.41;1493172;95;21105;-80
2022/07/28 02:00:09;;;;;;;23.73;12.85;;;;;;;19.57;100.00;99288.65;1498491;95;21128;-80
2022/07/28 02:02:46;;;;;;;27.87;15.78;;;;;;;19.54;100.00;99282.28;1487370;96;21120;-81
2022/07/28 02:05:16;;;;;;;32.28;20.12;;;;;;;19.51;100.00;99275.92;1500405;94;21171;-82
2022/07/28 02:07:43;;;;;;;36.08;21.57;;;;;;;19.49;100.00;99278.08;1516824;94;21087;-80
2022/07/28 02:10:14;;;;;;;35.45;23.18;;;;;;;19.44;100.00;99278.84;1540432;89;21054;-80
2022/07/28 02:12:43;;;;;;;39.10;23.40;;;;;;;19.40;100.00;99276.29;1540443;93;21087;-81
2022/07/28 02:15:10;;;;;;;36.48;20.40;;;;;;;19.37;100.00;99271.84;1521337;93;21130;-81
2022/07/28 02:17:41;;;;;;;31.73;20.12;;;;;;;19.33;100.00;99267.39;1557858;90;21165;-80
2022/07/28 02:20:09;;;;;;;31.27;18.45;;;;;;;19.28;100.00;99269.52;1617469;85;21065;-81
2022/07/28 02:22:38;;;;;;;26.27;15.50;;;;;;;19.24;100.00;99260.11;1681247;85;21124;-79
2022/07/28 02:25:06;;;;;;;23.38;12.58;;;;;;;19.19;100.00;99259.20;1681453;85;21515;-80
2022/07/28 02:27:50;;;;;;;21.80;10.32;;;;;;;19.15;100.00;99252.02;1713523;84;21552;-79
2022/07/28 02:30:37;;;;;;;17.98;9.45;;;;;;;19.08;100.00;99250.78;1713108;83;21078;-79
2022/07/28 02:33:14;;;;;;;15.50;8.03;;;;;;;19.05;100.00;99247.19;1715171;84;21038;-79
2022/07/28 02:35:54;;;;;;;18.23;8.98;;;;;;;19.03;100.00;99242.47;1629899;88;21067;-80
2022/07/28 02:38:29;;;;;;;13.08;7.85;;;;;;;19.01;100.00;99243.26;1629762;88;21019;-80
2022/07/28 02:41:00;;;;;;;15.38;7.75;;;;;;;18.99;100.00;99232.27;1576097;91;21080;-79
2022/07/28 02:43:28;;;;;;;12.65;6.90;;;;;;;18.97;100.00;99221.55;1556363;92;21071;-79
2022/07/28 02:45:57;;;;;;;12.53;7.33;;;;;;;18.97;100.00;99215.53;1525467;93;21098;-80
2022/07/28 02:48:28;;;;;;;13.55;6.97;;;;;;;18.97;100.00;99209.23;1556466;92;21660;-79
2022/07/28 02:50:56;;;;;;;13.93;7.75;;;;;;;18.96;100.00;99208.41;1542157;93;21144;-80
2022/07/28 02:53:23;;;;;;;13.80;8.08;;;;;;;18.97;100.00;99201.83;1544551;93;21230;-79
2022/07/28 02:55:50;;;;;;;19.35;10.28;;;;;;;18.99;100.00;99196.66;1544974;93;21235;-81
2022/07/28 02:58:22;;;;;;;18.40;10.63;;;;;;;19.01;100.00;99201.34;1544675;93;21150;-80
2022/07/28 03:00:51;;;;;;;18.03;10.83;;;;;;;19.03;100.00;99194.53;1544874;93;21593;-80
2022/07/28 03:03:18;;;;;;;15.38;9.60;;;;;;;19.05;100.00;99191.03;1544751;93;21106;-80
2022/07/28 03:05:45;;;;;;;18.52;9.78;;;;;;;19.08;100.00;99195.98;1544680;93;21118;-80
2022/07/28 03:08:12;;;;;;;18.35;9.25;;;;;;;19.15;100.00;99193.09;1544876;93;21091;-80
2022/07/28 03:10:40;;;;;;;17.35;9.25;;;;;;;19.19;100.00;99189.32;1544751;93;21138;-80
2022/07/28 03:13:07;;;;;;;20.48;9.45;;;;;;;19.24;100.00;99188.04;1544652;93;21078;-79
2022/07/28 03:15:35;;;;;;;27.93;14.47;;;;;;;19.28;100.00;99186.45;1544641;93;21067;-80
2022/07/28 03:18:04;;;;;;;35.52;18.60;;;;;;;19.31;100.00;99188.16;1544814;93;21142;-79
2022/07/28 03:20:33;;;;;;;34.70;19.77;;;;;;;19.37;100.00;99190.98;1544944;93;21118;-80
2022/07/28 03:23:01;;;;;;;23.42;14.07;;;;;;;19.46;100.00;99183.47;1544650;93;21128;-80
2022/07/28 03:25:36;;;;;;;20.95;12.35;;;;;;;19.57;100.00;99188.57;1546443;93;21094;-79
2022/07/28 03:28:04;;;;;;;19.20;11.22;;;;;;;19.66;100.00;99187.06;1544530;93;21138;-79
2022/07/28 03:30:35;;;;;;;18.67;10.45;;;;;;;19.77;100.00;99193.55;1545044;93;21091;-80
2022/07/28 03:33:04;;;;;;;18.00;10.60;;;;;;;19.85;100.00;99193.13;1571556;91;21588;-79
2022/07/28 03:35:31;;;;;;;21.87;12.47;;;;;;;19.95;100.00;99199.84;1549533;93;21124;-80
2022/07/28 03:38:15;;;;;;;23.15;14.05;;;;;;;20.01;100.00;99201.55;1531241;92;21030;-79
2022/07/28 03:40:42;;;;;;;32.48;19.27;;;;;;;20.08;100.00;99203.05;1547771;92;21131;-77
2022/07/28 03:43:10;;;;;;;33.15;20.37;;;;;;;20.16;100.00;99210.00;1590479;88;21069;-78
2022/07/28 03:45:37;;;;;;;42.93;28.90;;;;;;;20.23;100.00;99215.31;1603129;88;21116;-79
2022/07/28 03:48:04;;;;;;;44.25;25.55;;;;;;;20.28;100.00;99212.08;1676283;83;21044;-81
2022/07/28 03:50:32;;;;;;;28.00;16.02;;;;;;;20.37;100.00;99214.39;1676987;85;21109;-78
2022/07/28 03:53:01;;;;;;;33.78;15.53;;;;;;;20.45;100.00;99216.14;1656843;86;21563;-80
2022/07/28 03:55:29;;;;;;;35.70;15.20;;;;;;;20.55;100.00;99214.60;1656638;87;21042;-80
2022/07/28 03:57:56;;;;;;;30.05;13.90;;;;;;;20.62;100.00;99216.08;1656686;87;21038;-79
2022/07/28 04:00:24;;;;;;;38.55;14.93;;;;;;;20.70;100.00;99216.19;1673028;85;21092;-79
2022/07/28 04:02:51;;;;;;;34.98;15.85;;;;;;;20.80;100.00;99215.45;1681699;85;21020;-79
2022/07/28 04:05:18;;;;;;;34.43;14.23;;;;;;;20.88;100.00;99219.12;1681741;85;21109;-80
2022/07/28 04:07:47;;;;;;;34.27;15.25;;;;;;;20.95;100.00;99217.55;1681898;83;21558;-79
2022/07/28 04:10:15;;;;;;;34.92;19.65;;;;;;;21.03;100.00;99214.31;1681546;85;21040;-80
2022/07/28 04:12:55;;;;;;;35.60;22.42;;;;;;;21.11;100.00;99208.91;1681707;85;21096;-80
2022/07/28 04:15:24;;;;;;;49.40;30.52;;;;;;;21.20;100.00;99212.28;1681865;85;21131;-80
2022/07/28 04:17:52;;;;;;;47.03;28.98;;;;;;;21.35;100.00;99225.31;1681591;85;21100;-79
2022/07/28 04:20:21;;;;;;;44.20;27.40;;;;;;;21.52;100.00;99234.85;1681823;85;21139;-79
2022/07/28 04:22:49;;;;;;;49.55;29.92;;;;;;;21.72;100.00;99247.11;1681707;85;21026;-79
2022/07/28 04:25:18;;;;;;;33.58;19.73;;;;;;;21.89;100.00;99266.23;1683224;85;21072;-78
2022/07/28 04:27:45;;;;;;;27.35;16.05;;;;;;;22.02;100.00;99278.69;1683675;85;21029;-79
2022/07/28 04:30:17;;;;;;;22.75;12.65;;;;;;;22.17;100.00;99298.89;1683685;85;21479;-79
2022/07/28 04:32:47;;;;;;;23.20;12.45;;;;;;;22.36;100.00;99319.12;1683809;85;21006;-79
2022/07/28 04:35:15;;;;;;;91.05;60.78;;;;;;;22.55;100.00;99337.41;1683768;85;21553;-80
2022/07/28 04:37:42;;;;;;;38.38;23.47;;;;;;;22.75;100.00;99354.06;1683502;85;21609;-79
2022/07/28 04:40:10;;;;;;;22.00;12.80;;;;;;;22.95;100.00;99366.28;1683917;85;21330;-80
2022/07/28 04:42:39;;;;;;;21.23;11.68;;;;;;;23.21;100.00;99395.34;1728802;83;21010;-80
2022/07/28 04:45:07;;;;;;;18.32;10.00;;;;;;;23.42;100.00;99417.75;1732835;83;21034;-79
2022/07/28 04:47:35;;;;;;;26.68;16.12;;;;;;;23.65;100.00;99433.55;1725234;83;21038;-80
2022/07/28 04:50:05;;;;;;;30.65;18.50;;;;;;;23.87;100.00;99447.17;1722902;83;21531;-78
2022/07/28 04:52:32;;;;;;;27.07;14.38;;;;;;;24.12;100.00;99431.73;1722116;83;21540;-81
2022/07/28 04:54:59;;;;;;;52.58;33.02;;;;;;;24.36;100.00;99418.17;1722819;83;21090;-78
2022/07/28 04:57:29;;;;;;;79.10;52.03;;;;;;;24.58;100.00;99409.07;1722649;83;21038;-79
2022/07/28 04:59:57;;;;;;;221.65;185.30;;;;;;;24.81;100.00;99449.10;1722076;82;21029;-78
2022/07/28 05:02:23;;;;;;;105.03;73.55;;;;;;;25.00;100.00;99481.14;1722945;83;21056;-78
2022/07/28 05:04:51;;;;;;;216.23;192.40;;;;;;;25.18;100.00;99514.84;1723627;83;21100;-79
2022/07/28 05:07:19;;;;;;;517.63;463.90;;;;;;;25.36;100.00;99538.34;1721203;83;21030;-77
2022/07/28 05:09:47;;;;;;;39.67;35.23;;;;;;;25.54;100.00;99537.71;1721269;83;21082;-78
2022/07/28 05:12:14;;;;;;;34.27;30.68;;;;;;;25.72;100.00;99558.40;1721524;83;21002;-79
2022/07/28 05:14:41;;;;;;;33.10;28.23;;;;;;;25.86;100.00;99590.47;1721412;83;21480;-79
2022/07/28 05:17:08;;;;;;;31.50;22.20;;;;;;;26.00;100.00;99599.02;1721048;83;21516;-79
2022/07/28 05:19:34;;;;;;;19.17;11.73;;;;;;;26.18;100.00;99608.62;1721256;83;20978;-79
2022/07/28 05:22:01;;;;;;;23.02;13.03;;;;;;;26.33;100.00;99620.20;1721414;83;20990;-78
2022/07/28 05:24:28;;;;;;;28.35;15.63;;;;;;;26.47;100.00;99635.61;1721424;83;21022;-79
2022/07/28 05:26:55;;;;;;;24.72;14.70;;;;;;;26.53;100.00;99646.39;1720742;83;21512;-79
2022/07/28 05:29:23;;;;;;;18.73;10.88;;;;;;;26.69;100.00;99641.61;1721032;83;21065;-76
2022/07/28 05:31:50;;;;;;;19.00;10.70;;;;;;;26.87;100.00;99660.89;1721103;82;21034;-77
2022/07/28 05:34:17;;;;;;;19.40;11.12;;;;;;;26.99;100.00;99661.92;1721396;83;21018;-78
2022/07/28 05:36:45;;;;;;;23.18;16.27;;;;;;;27.14;100.00;99672.63;1721321;83;21553;-77
2022/07/28 05:39:11;;;;;;;14.65;9.10;;;;;;;27.29;100.00;99669.75;1721398;83;21077;-77
2022/07/28 05:41:38;;;;;;;25.00;16.45;;;;;;;27.51;100.00;99680.93;1718042;83;21472;-79
2022/07/28 05:44:05;;;;;;;16.52;8.93;;;;;;;27.70;100.00;99685.19;1713028;84;21062;-77
2022/07/28 05:46:34;;;;;;;16.62;10.48;;;;;;;27.84;100.00;99707.80;1714345;82;21031;-80
2022/07/28 05:49:02;;;;;;;13.30;7.92;;;;;;;28.01;100.00;99708.77;1715702;83;21543;-81
2022/07/28 05:51:30;;;;;;;12.82;8.15;;;;;;;28.20;100.00;99710.77;1715758;84;21070;-83
2022/07/28 05:53:57;;;;;;;12.68;7.87;;;;;;;28.36;100.00;99735.85;1716974;84;21033;-82
2022/07/28 05:56:26;;;;;;;17.87;9.70;;;;;;;28.46;100.00;99738.27;1716211;84;21141;-79
2022/07/28 05:58:53;;;;;;;22.25;12.23;;;;;;;28.59;100.00;99739.76;1715851;82;21029;-79
2022/07/28 06:01:20;;;;;;;21.33;12.10;;;;;;;28.74;100.00;99744.30;1742956;81;21037;-78
2022/07/28 06:03:51;;;;;;;22.15;14.20;;;;;;;28.84;100.00;99747.48;1740932;82;21052;-79
2022/07/28 06:06:17;;;;;;;23.00;13.03;;;;;;;28.95;100.00;99759.30;1741318;82;21044;-80
2022/07/28 06:08:46;;;;;;;16.42;10.28;;;;;;;29.11;100.00;99755.72;1741726;82;21037;-77
2022/07/28 06:11:15;;;;;;;24.52;15.60;;;;;;;29.31;100.00;99762.41;1742161;82;21553;-78
2022/07/28 06:13:45;;;;;;;14.78;9.20;;;;;;;29.55;100.00;99772.59;1741788;81;21068;-76
2022/07/28 06:16:12;;;;;;;16.25;8.40;;;;;;;29.77;100.00;99789.28;1742439;82;21048;-77
2022/07/28 06:18:39;;;;;;;14.13;9.40;;;;;;;29.98;100.00;99792.50;1741549;82;21061;-80
2022/07/28 06:21:06;;;;;;;15.93;7.87;;;;;;;30.13;100.00;99805.34;1742350;82;21021;-78
2022/07/28 06:23:33;;;;;;;13.75;7.28;;;;;;;30.26;100.00;99804.52;1741981;82;21022;-76
2022/07/28 06:26:00;;;;;;;14.05;7.80;;;;;;;30.38;100.00;99823.57;1741708;82;21021;-79
2022/07/28 06:28:35;;;;;;;22.52;15.25;;;;;;;30.37;100.00;99828.33;1742084;82;21001;-81
2022/07/28 06:31:02;;;;;;;13.90;8.70;;;;;;;30.35;100.00;99824.18;1743030;82;21097;-80
2022/07/28 06:33:33;;;;;;;12.00;7.90;;;;;;;30.45;100.00;99826.77;1743482;82;21041;-80
2022/07/28 06:36:00;;;;;;;9.65;6.15;;;;;;;30.57;100.00;99831.27;1741741;82;21060;-80
2022/07/28 06:38:27;;;;;;;8.63;5.42;;;;;;;30.73;100.00;99839.34;1741897;82;21491;-80
2022/07/28 06:40:55;;;;;;;10.38;4.53;;;;;;;30.89;100.00;99837.88;1741731;82;21005;-78
2022/07/28 06:43:22;;;;;;;7.55;4.80;;;;;;;31.12;100.00;99838.80;1739930;82;21099;-78
2022/07/28 06:45:50;;;;;;;9.78;5.17;;;;;;;31.22;100.00;99853.93;1740013;82;21014;-78
2022/07/28 06:48:17;;;;;;;157.00;140.70;;;;;;;31.25;100.00;99866.42;1740047;82;21540;-77
2022/07/28 06:50:44;;;;;;;27.15;18.85;;;;;;;31.09;100.00;99872.09;1740271;82;21068;-81
2022/07/28 06:53:11;;;;;;;10.60;6.72;;;;;;;30.98;100.00;99866.73;1729554;82;21046;-80
2022/07/28 06:55:38;;;;;;;12.25;6.45;;;;;;;30.89;100.00;99862.17;1719418;82;21482;-78
2022/07/28 06:58:05;;;;;;;17.92;10.72;;;;;;;30.90;100.00;99850.70;1718241;82;21017;-78
2022/07/28 07:00:32;;;;;;;24.82;18.35;;;;;;;31.04;100.00;99845.11;1719139;82;21029;-80
2022/07/28 07:02:59;;;;;;;15.03;10.10;;;;;;;31.30;100.00;99841.17;1722100;82;20974;-78
2022/07/28 07:05:28;;;;;;;17.42;8.85;;;;;;;31.55;100.00;99839.80;1710090;84;21554;-79
2022/07/28 07:07:57;;;;;;;13.22;7.20;;;;;;;31.81;100.00;99839.73;1735676;81;21082;-77
2022/07/28 07:10:24;;;;;;;14.23;6.90;;;;;;;32.04;100.00;99848.37;1712766;82;21524;-74
2022/07/28 07:12:51;;;;;;;10.58;6.40;;;;;;;32.30;100.00;99844.91;1714964;84;21050;-77
2022/07/28 07:15:20;;;;;;;14.38;7.85;;;;;;;32.44;100.00;99863.82;1714527;84;21078;-78
2022/07/28 07:17:47;;;;;;;11.70;5.58;;;;;;;32.51;100.00;99866.98;1714899;84;21043;-79
2022/07/28 07:20:15;;;;;;;9.58;5.28;;;;;;;32.58;100.00;99872.11;1723449;82;21456;-77
2022/07/28 07:22:44;;;;;;;8.65;5.62;;;;;;;32.65;100.00;99866.06;1749967;82;21032;-76
2022/07/28 07:25:14;;;;;;;13.00;6.95;;;;;;;32.77;100.00;99869.66;1749847;82;21503;-76
2022/07/28 07:27:41;;;;;;;16.62;9.80;;;;;;;32.84;100.00;99872.22;1695192;84;21052;-80
2022/07/28 07:30:11;;;;;;;15.08;8.80;;;;;;;32.95;100.00;99875.53;1678586;85;21115;-77
2022/07/28 07:32:37;;;;;;;11.50;7.12;;;;;;;33.10;100.00;99885.48;1686093;84;21486;-75
2022/07/28 07:35:07;;;;;;;13.75;7.83;;;;;;;33.26;100.00;99888.08;1687183;84;21095;-76
2022/07/28 07:37:33;;;;;;;12.33;6.28;;;;;;;33.16;100.00;99888.97;1687750;84;21095;-80
2022/07/28 07:40:01;;;;;;;11.55;6.25;;;;;;;33.09;100.00;99893.06;1688926;85;21102;-81
2022/07/28 07:42:28;;;;;;;11.75;6.50;;;;;;;33.14;100.00;99894.90;1690955;84;21115;-79
2022/07/28 07:44:55;;;;;;;11.60;5.92;;;;;;;33.28;100.00;99892.78;1693774;85;21629;-79
2022/07/28 07:47:23;;;;;;;8.58;5.37;;;;;;;33.37;100.00;99905.98;1693737;84;21413;-81
2022/07/28 07:49:50;;;;;;;10.05;5.50;;;;;;;33.38;100.00;99901.46;1692767;85;21055;-76
2022/07/28 07:52:17;;;;;;;27.55;22.17;;;;;;;33.38;100.00;99910.42;1693246;85;21072;-79
2022/07/28 07:54:44;;;;;;;15.43;6.85;;;;;;;33.44;100.00;99908.54;1693907;85;21044;-77
2022/07/28 07:57:11;;;;;;;10.20;6.28;;;;;;;33.57;100.00;99904.52;1693897;85;21020;-78
2022/07/28 07:59:38;;;;;;;11.00;5.35;;;;;;;33.75;100.00;99906.22;1683721;85;21030;-76
2022/07/28 08:02:05;;;;;;;9.20;5.28;;;;;;;33.98;100.00;99911.06;1664254;86;21066;-78
2022/07/28 08:04:32;;;;;;;7.40;5.20;;;;;;;34.15;100.00;99915.80;1664155;86;21058;-77
2022/07/28 08:06:59;;;;;;;8.50;5.00;;;;;;;34.15;100.00;99916.39;1664086;85;21580;-75
2022/07/28 08:09:28;;;;;;;6.47;4.78;;;;;;;34.06;100.00;99919.21;1669724;85;21024;-79
2022/07/28 08:11:58;;;;;;;7.80;4.80;;;;;;;34.12;100.00;99918.45;1694003;84;21052;-79
2022/07/28 08:14:26;;;;;;;8.35;5.65;;;;;;;34.19;100.00;99928.62;1694342;85;21087;-79
2022/07/28 08:16:55;;;;;;;20.40;12.35;;;;;;;34.31;100.00;99924.55;1696504;85;21212;-81
2022/07/28 08:19:22;;;;;;;24.65;19.42;;;;;;;34.35;100.00;99928.36;1694293;85;21990;-79
2022/07/28 08:21:49;;;;;;;10.58;6.40;;;;;;;34.36;100.00;99917.36;1694101;85;21067;-76
2022/07/28 08:24:16;;;;;;;11.80;6.15;;;;;;;34.47;100.00;99927.65;1694564;84;21145;-76
2022/07/28 08:26:44;;;;;;;7.87;4.95;;;;;;;34.61;100.00;99919.02;1704347;83;21564;-77
2022/07/28 08:29:10;;;;;;;6.92;4.70;;;;;;;34.72;100.00;99930.15;1695495;83;21078;-78
2022/07/28 08:31:37;;;;;;;9.20;4.65;;;;;;;34.83;100.00;99921.36;1717415;83;21014;-75
2022/07/28 08:34:04;;;;;;;8.20;5.30;;;;;;;34.97;100.00;99923.34;1717686;83;21042;-77
2022/07/28 08:36:32;;;;;;;8.68;5.10;;;;;;;34.99;100.00;99927.48;1717726;83;21628;-78
2022/07/28 08:39:00;;;;;;;9.60;5.00;;;;;;;35.03;100.00;99920.61;1718000;83;21015;-79
2022/07/28 08:41:52;;;;;;;6.87;4.90;;;;;;;35.11;100.00;99920.30;1685489;83;20971;-78
2022/07/28 08:44:26;;;;;;;7.62;4.83;;;;;;;35.03;100.00;99921.20;1741284;81;20995;-79
2022/07/28 08:46:54;;;;;;;8.53;5.30;;;;;;;35.06;100.00;99928.37;1725210;83;21101;-77
2022/07/28 08:49:22;;;;;;;11.10;5.62;;;;;;;35.15;100.00;99918.48;1728371;83;21059;-79
2022/07/28 08:51:52;;;;;;;7.42;4.92;;;;;;;35.24;100.00;99918.44;1727975;83;21076;-78
2022/07/28 08:54:21;;;;;;;8.58;5.40;;;;;;;35.21;100.00;99921.95;1727999;83;21082;-79
2022/07/28 08:56:48;;;;;;;11.30;5.10;;;;;;;35.19;100.00;99905.39;1727862;83;21035;-77
2022/07/28 08:59:15;;;;;;;6.85;5.00;;;;;;;35.33;100.00;99910.20;1733345;82;21193;-79
2022/07/28 09:01:44;;;;;;;7.70;5.30;;;;;;;35.43;100.00;99909.55;1757431;82;21020;-77
2022/07/28 09:04:11;;;;;;;7.78;5.12;;;;;;;35.49;100.00;99911.02;1758226;82;21040;-77
2022/07/28 09:06:41;;;;;;;11.25;6.42;;;;;;;35.64;100.00;99910.37;1728201;82;21075;-77
2022/07/28 09:09:10;;;;;;;10.65;5.83;;;;;;;35.85;100.00;99917.42;1729726;82;21012;-77
2022/07/28 09:11:37;;;;;;;10.60;5.72;;;;;;;36.05;100.00;99915.77;1697343;84;21027;-78
2022/07/28 09:14:05;;;;;;;7.37;5.28;;;;;;;36.19;100.00;99918.84;1696963;84;21066;-75
2022/07/28 09:16:32;;;;;;;6.83;5.10;;;;;;;36.11;100.00;99917.78;1696649;84;21038;-78
2022/07/28 09:18:59;;;;;;;11.45;5.92;;;;;;;35.96;100.00;99924.04;1697119;84;21042;-79
2022/07/28 09:21:26;;;;;;;7.05;5.10;;;;;;;35.75;100.00;99929.09;1696846;84;21007;-75
2022/07/28 09:23:53;;;;;;;13.75;5.75;;;;;;;35.51;100.00;99929.17;1697688;84;21030;-76
2022/07/28 09:26:19;;;;;;;24.92;6.78;;;;;;;35.32;100.00;99926.81;1697673;84;21015;-77
2022/07/28 09:28:56;;;;;;;14.87;5.80;;;;;;;35.14;100.00;99923.84;1697679;84;21055;-80
2022/07/28 09:31:25;;;;;;;8.00;5.58;;;;;;;34.94;100.00;99929.08;1697502;84;21042;-79
2022/07/28 09:33:59;;;;;;;13.53;6.10;;;;;;;34.79;100.00;99920.65;1697035;84;21536;-78
2022/07/28 09:36:37;;;;;;;10.15;7.20;;;;;;;34.79;100.00;99925.42;1642027;87;21106;-77
2022/07/28 09:39:04;;;;;;;7.03;5.80;;;;;;;34.93;100.00;99933.03;1620245;88;21110;-78
2022/07/28 09:41:49;;;;;;;7.42;5.22;;;;;;;35.18;100.00;99924.80;1628590;88;21059;-77
2022/07/28 09:44:19;;;;;;;8.38;5.08;;;;;;;35.45;100.00;99922.12;1588866;89;21549;-78
2022/07/28 09:46:46;;;;;;;7.33;4.90;;;;;;;35.73;100.00;99927.21;1601384;90;21533;-79
2022/07/28 09:49:13;;;;;;;10.90;5.10;;;;;;;35.99;100.00;99928.98;1601413;90;21107;-79
2022/07/28 09:51:40;;;;;;;7.78;4.90;;;;;;;36.15;100.00;99926.35;1600834;90;21040;-77
2022/07/28 09:54:16;;;;;;;6.42;4.83;;;;;;;36.26;100.00;99926.17;1601482;90;21103;-80
2022/07/28 09:56:44;;;;;;;9.58;6.35;;;;;;;36.44;100.00;99931.87;1601987;90;21098;-77
2022/07/28 09:59:12;;;;;;;9.53;5.87;;;;;;;36.51;100.00;99938.91;1605472;88;21012;-76
2022/07/28 10:01:54;;;;;;;13.58;7.60;;;;;;;36.57;100.00;99932.70;1607593;88;21160;-76
2022/07/28 10:04:36;;;;;;;15.53;8.60;;;;;;;36.58;99.49;99933.52;1629232;88;21139;-79
2022/07/28 10:07:15;;;;;;;9.63;5.40;;;;;;;36.45;93.49;99932.68;1628838;88;21058;-78
2022/07/28 10:09:42;;;;;;;8.13;4.85;;;;;;;36.43;97.50;99928.80;1707329;84;21016;-78
2022/07/28 10:12:22;;;;;;;10.23;4.75;;;;;;;36.58;97.72;99923.07;1706889;84;20965;-79
2022/07/28 10:14:50;;;;;;;13.93;9.90;;;;;;;36.77;98.74;99924.55;1656867;87;21043;-77
2022/07/28 10:17:28;;;;;;;7.67;5.95;;;;;;;36.92;98.53;99918.23;1696243;83;21482;-77
2022/07/28 10:20:03;;;;;;;6.12;4.83;;;;;;;37.08;98.82;99918.91;1705785;84;21080;-78
2022/07/28 10:22:36;;;;;;;15.28;7.65;;;;;;;36.99;84.88;99921.28;1706379;84;21123;-78
2022/07/28 10:25:14;;;;;;;29.35;20.92;;;;;;;36.68;88.85;99920.44;1683633;84;21159;-78
2022/07/28 10:27:42;;;;;;;9.53;6.55;;;;;;;36.40;91.95;99926.67;1707497;84;20992;-77
2022/07/28 10:30:12;;;;;;;5.45;4.80;;;;;;;36.10;93.12;99915.53;1707421;84;21029;-79
2022/07/28 10:32:44;;;;;;;7.00;5.08;;;;;;;36.09;95.16;99919.53;1702827;79;21026;-79
2022/07/28 10:35:13;;;;;;;9.33;4.80;;;;;;;36.18;96.24;99918.04;1804251;79;21011;-79
2022/07/28 10:37:52;;;;;;;7.78;4.70;;;;;;;36.33;97.78;99911.54;1773916;79;21034;-80
2022/07/28 10:40:24;;;;;;;8.13;4.65;;;;;;;36.46;96.37;99906.16;1726496;82;21603;-84
2022/07/28 10:42:57;;;;;;;7.90;5.25;;;;;;;36.59;99.07;99905.61;1703843;84;21042;-78
2022/07/28 10:45:26;;;;;;;9.28;5.40;;;;;;;36.75;94.40;99915.64;1667780;84;21145;-78
2022/07/28 10:47:54;;;;;;;16.15;10.05;;;;;;;36.87;94.33;99915.64;1668797;84;21143;-77
2022/07/28 10:50:21;;;;;;;6.95;5.65;;;;;;;36.99;97.06;99910.01;1699029;83;21052;-78
2022/07/28 10:52:48;;;;;;;10.08;5.28;;;;;;;37.17;95.56;99911.20;1673155;85;21080;-78
2022/07/28 10:55:49;;;;;;;6.90;5.00;;;;;;;37.33;94.87;99910.70;1664625;86;21539;-77
2022/07/28 10:58:49;;;;;;;6.53;4.60;;;;;;;37.47;92.87;99908.92;1664625;86;21546;-76
2022/07/28 11:01:38;;;;;;;7.03;4.70;;;;;;;37.53;92.68;99910.89;1664652;86;21060;-75
2022/07/28 11:04:06;;;;;;;6.65;4.60;;;;;;;37.62;91.30;99915.20;1582819;91;21053;-78
2022/07/28 11:06:35;;;;;;;5.92;4.75;;;;;;;37.75;90.34;99921.68;1630306;87;21447;-77
2022/07/28 11:09:20;;;;;;;6.65;4.30;;;;;;;37.88;86.63;99913.17;1639727;87;21085;-77
2022/07/28 11:11:53;;;;;;;25.10;5.62;;;;;;;37.93;85.25;99913.73;1639438;87;21069;-77
2022/07/28 11:17:12;;;;;;;7.65;4.85;;;;;;;37.89;79.48;99914.20;1500772;95;21119;-78
2022/07/28 11:19:50;;;;;;;9.43;4.75;;;;;;;37.85;79.59;99917.52;1476560;96;21071;-78
2022/07/28 11:22:23;;;;;;;7.25;5.00;;;;;;;37.77;81.13;99918.47;1500411;95;21111;-77
2022/07/28 11:25:02;;;;;;;7.35;5.22;;;;;;;37.78;82.92;99923.77;1501986;94;21132;-77
2022/07/28 11:27:48;;;;;;;25.68;5.37;;;;;;;37.87;82.38;99924.22;1508486;92;21102;-76
2022/07/28 11:30:34;;;;;;;5.60;4.58;;;;;;;37.92;82.45;99914.90;1505164;95;21096;-80
2022/07/28 11:33:02;;;;;;;7.47;4.72;;;;;;;37.91;80.76;99922.30;1496054;96;21100;-79
2022/07/28 11:35:33;;;;;;;10.00;4.40;;;;;;;37.93;81.57;99915.14;1495121;95;21086;-79